Time;durP1;ratioP1;P1;durP2;ratioP2;P2;SDS_P1;SDS_P2;PMS_P1;PMS_P2;Temp;Humidity;BMP_temperature;BMP_pressure;BME280_temperature;BME280_humidity;BME280_pressure;Samples;Min_cycle;Max_cycle;Signal;HPM_P1;HPM_P2
2021/11/28 00:00:07;;;;;;;14.55;9.30;;;1.60;99.90;;;;;;5068147;28;20538;-78
2021/11/28 00:02:34;;;;;;;16.60;9.82;;;1.60;99.90;;;;;;5069441;28;20192;-78
2021/11/28 00:05:02;;;;;;;18.40;8.98;;;1.60;99.90;;;;;;5069321;28;20152;-78
2021/11/28 00:12:39;;;;;;;14.25;8.38;;;1.60;99.90;;;;;;5049865;28;20205;-77
2021/11/28 00:15:07;;;;;;;19.98;10.52;;;1.60;99.90;;;;;;5049437;28;20733;-78
2021/11/28 00:17:35;;;;;;;19.75;9.45;;;1.60;99.90;;;;;;5049352;28;20157;-76
2021/11/28 00:20:03;;;;;;;12.57;8.35;;;1.60;99.90;;;;;;5063919;28;20180;-77
2021/11/28 00:22:29;;;;;;;15.38;8.63;;;1.60;99.90;;;;;;5068987;28;20189;-78
2021/11/28 00:24:55;;;;;;;17.90;9.98;;;1.60;99.90;;;;;;5069329;28;20160;-77
2021/11/28 00:27:22;;;;;;;19.15;9.43;;;1.60;99.90;;;;;;5069217;28;20167;-78
2021/11/28 00:29:48;;;;;;;17.77;9.27;;;1.60;99.90;;;;;;5068961;28;20171;-78
2021/11/28 00:32:14;;;;;;;14.90;8.93;;;1.70;99.90;;;;;;5067690;28;20228;-78
2021/11/28 00:34:39;;;;;;;19.42;11.68;;;1.60;99.90;;;;;;5067850;28;20679;-77
2021/11/28 00:37:07;;;;;;;15.57;9.15;;;1.70;99.90;;;;;;5067659;28;20168;-77
2021/11/28 00:39:34;;;;;;;16.55;9.02;;;1.60;99.90;;;;;;5068848;28;20160;-77
2021/11/28 00:42:00;;;;;;;15.88;7.57;;;1.60;99.90;;;;;;5067202;28;20200;-76
2021/11/28 00:44:26;;;;;;;15.55;8.60;;;1.70;99.90;;;;;;5067508;28;20173;-76
2021/11/28 00:46:52;;;;;;;14.45;7.93;;;1.70;99.90;;;;;;5067652;28;20175;-76
2021/11/28 00:49:22;;;;;;;17.30;9.23;;;1.80;99.90;;;;;;5068569;28;20161;-77
2021/11/28 00:54:14;;;;;;;15.00;8.10;;;1.80;99.90;;;;;;5068880;28;20181;-76
2021/11/28 00:56:40;;;;;;;16.15;7.97;;;1.80;99.90;;;;;;5068623;28;20172;-76
2021/11/28 00:59:06;;;;;;;14.68;8.60;;;1.80;99.90;;;;;;5067054;28;20215;-76
2021/11/28 01:01:34;;;;;;;14.95;8.13;;;1.70;99.90;;;;;;5066927;28;20216;-76
2021/11/28 01:04:03;;;;;;;13.65;9.20;;;1.60;99.90;;;;;;5068578;28;20672;-77
2021/11/28 01:06:29;;;;;;;18.30;8.35;;;1.50;99.90;;;;;;5067460;28;20173;-77
2021/11/28 01:08:56;;;;;;;17.52;8.55;;;1.50;99.90;;;;;;5068628;28;20617;-77
2021/11/28 01:11:23;;;;;;;14.98;7.38;;;1.50;99.90;;;;;;5066365;28;20203;-77
2021/11/28 01:13:53;;;;;;;17.42;8.02;;;1.50;99.90;;;;;;5047357;28;20689;-76
2021/11/28 01:16:20;;;;;;;14.63;8.05;;;1.60;99.90;;;;;;5048501;28;20164;-77
2021/11/28 01:18:49;;;;;;;14.95;8.77;;;1.50;99.90;;;;;;5059986;28;20160;-76
2021/11/28 01:21:15;;;;;;;11.43;6.90;;;1.50;99.90;;;;;;5072224;28;20197;-76
2021/11/28 01:23:41;;;;;;;12.20;7.35;;;1.50;99.90;;;;;;5072584;28;20153;-76
2021/11/28 01:26:07;;;;;;;16.27;7.18;;;1.60;99.90;;;;;;5072565;28;20227;-76
2021/11/28 01:28:33;;;;;;;17.20;7.85;;;1.60;99.90;;;;;;5071185;28;20179;-76
2021/11/28 01:30:58;;;;;;;15.43;7.22;;;1.70;99.90;;;;;;5072051;28;20199;-76
2021/11/28 01:33:24;;;;;;;17.48;7.72;;;1.70;99.90;;;;;;5072463;28;20193;-77
2021/11/28 01:35:52;;;;;;;12.77;6.75;;;1.60;99.90;;;;;;5071131;28;20169;-77
2021/11/28 01:38:21;;;;;;;13.70;6.65;;;1.60;99.90;;;;;;5071007;28;20161;-77
2021/11/28 01:40:49;;;;;;;13.70;6.93;;;1.60;99.90;;;;;;5072154;28;20248;-77
2021/11/28 01:43:16;;;;;;;11.80;6.10;;;1.50;99.90;;;;;;5072317;28;20167;-78
2021/11/28 01:45:45;;;;;;;16.13;7.15;;;1.60;99.90;;;;;;5071028;28;20179;-77
2021/11/28 01:48:13;;;;;;;15.60;7.35;;;1.60;99.90;;;;;;5070941;28;20182;-77
2021/11/28 01:50:43;;;;;;;15.18;7.68;;;1.50;99.90;;;;;;5063410;28;20201;-77
2021/11/28 01:53:25;;;;;;;15.98;7.75;;;1.50;99.90;;;;;;5069772;28;20236;-77
2021/11/28 01:55:52;;;;;;;15.95;7.93;;;1.40;99.90;;;;;;5050531;28;20165;-77
2021/11/28 01:58:19;;;;;;;12.30;6.78;;;1.40;99.90;;;;;;5050665;28;20225;-78
2021/11/28 02:00:48;;;;;;;13.68;7.95;;;1.40;99.90;;;;;;5064604;28;20204;-78
2021/11/28 02:03:16;;;;;;;13.15;6.97;;;1.40;99.90;;;;;;5052037;28;20211;-77
2021/11/28 02:05:47;;;;;;;11.27;6.80;;;1.30;99.90;;;;;;5051896;28;20172;-79
2021/11/28 02:08:13;;;;;;;13.05;6.55;;;1.30;99.90;;;;;;5050782;28;20172;-77
2021/11/28 02:10:39;;;;;;;17.23;6.53;;;1.40;99.90;;;;;;5056264;28;20192;-77
2021/11/28 02:13:05;;;;;;;12.57;6.03;;;1.40;99.90;;;;;;5068979;28;20235;-76
2021/11/28 02:15:32;;;;;;;16.15;7.50;;;1.20;99.90;;;;;;5071700;28;20195;-76
2021/11/28 02:17:58;;;;;;;11.07;6.60;;;1.20;99.90;;;;;;5063565;28;20195;-76
2021/11/28 02:20:27;;;;;;;14.18;7.20;;;1.20;99.90;;;;;;5068126;28;20284;-76
2021/11/28 02:22:55;;;;;;;12.50;6.07;;;1.30;99.90;;;;;;5070182;28;20172;-76
2021/11/28 02:25:21;;;;;;;13.80;7.80;;;1.30;99.90;;;;;;5071540;28;20149;-76
2021/11/28 02:27:47;;;;;;;14.13;7.95;;;1.20;99.90;;;;;;5070206;28;20169;-76
2021/11/28 02:30:17;;;;;;;16.08;6.53;;;1.20;99.90;;;;;;5069209;28;20287;-76
2021/11/28 02:32:44;;;;;;;13.40;6.63;;;1.20;99.90;;;;;;5070001;28;20560;-76
2021/11/28 02:35:14;;;;;;;13.80;7.70;;;1.30;99.90;;;;;;5071319;28;20157;-76
2021/11/28 02:37:42;;;;;;;17.25;6.45;;;1.30;99.90;;;;;;5071262;28;20149;-76
2021/11/28 02:40:10;;;;;;;9.20;6.05;;;1.30;99.90;;;;;;5071145;28;20575;-75
2021/11/28 02:42:36;;;;;;;12.35;6.40;;;1.40;99.90;;;;;;5070034;28;20263;-75
2021/11/28 02:45:02;;;;;;;13.80;6.25;;;1.40;99.90;;;;;;5071305;28;20157;-75
2021/11/28 02:47:28;;;;;;;9.73;5.80;;;1.50;99.90;;;;;;5070062;28;20169;-76
2021/11/28 02:49:54;;;;;;;11.38;6.05;;;1.50;99.90;;;;;;5069795;28;20227;-76
2021/11/28 02:52:20;;;;;;;13.73;5.30;;;1.50;99.90;;;;;;5071163;28;20183;-76
2021/11/28 02:54:46;;;;;;;12.35;5.50;;;1.60;99.90;;;;;;5070019;28;20168;-76
2021/11/28 02:57:13;;;;;;;12.02;5.28;;;1.60;99.90;;;;;;5069733;28;20164;-77
2021/11/28 02:59:39;;;;;;;14.40;5.47;;;1.70;99.90;;;;;;5070962;28;20244;-77
2021/11/28 03:02:06;;;;;;;12.65;5.38;;;1.70;99.90;;;;;;5070922;28;20169;-77
2021/11/28 03:04:32;;;;;;;15.52;6.43;;;1.60;99.90;;;;;;5070979;28;20161;-75
2021/11/28 03:06:58;;;;;;;13.18;6.50;;;1.60;99.90;;;;;;5069570;28;20199;-76
2021/11/28 03:09:24;;;;;;;10.57;5.50;;;1.60;99.90;;;;;;5070928;28;20161;-75
2021/11/28 03:11:49;;;;;;;10.68;5.35;;;1.60;99.90;;;;;;5069356;28;20203;-77
2021/11/28 03:14:16;;;;;;;12.68;5.88;;;1.60;99.90;;;;;;5070771;28;20172;-77
2021/11/28 03:16:41;;;;;;;11.85;5.57;;;1.60;99.90;;;;;;5069486;28;20652;-77
2021/11/28 03:19:07;;;;;;;11.48;6.55;;;1.50;99.90;;;;;;5070678;28;20192;-77
2021/11/28 03:21:34;;;;;;;11.13;5.68;;;1.50;99.90;;;;;;5070499;28;20189;-77
2021/11/28 03:24:03;;;;;;;13.75;5.40;;;1.50;99.90;;;;;;5069310;28;20177;-77
2021/11/28 03:26:37;;;;;;;12.85;5.90;;;1.40;99.90;;;;;;5069297;28;20169;-77
2021/11/28 03:29:09;;;;;;;11.50;6.53;;;1.40;99.90;;;;;;5069189;28;20176;-77
2021/11/28 03:31:38;;;;;;;12.60;7.10;;;1.40;99.90;;;;;;5069121;28;20282;-75
2021/11/28 03:34:06;;;;;;;13.50;6.82;;;1.40;99.90;;;;;;5070460;28;20224;-75
2021/11/28 03:36:35;;;;;;;16.60;6.93;;;1.40;99.90;;;;;;5070355;28;20172;-76
2021/11/28 03:39:05;;;;;;;12.05;6.22;;;1.40;99.90;;;;;;5070396;28;20153;-75
2021/11/28 03:41:31;;;;;;;18.73;7.80;;;1.40;99.90;;;;;;5070146;28;20215;-76
2021/11/28 03:43:58;;;;;;;14.48;7.40;;;1.40;99.90;;;;;;5070235;28;20153;-76
2021/11/28 03:46:24;;;;;;;17.25;8.45;;;1.40;99.90;;;;;;5068916;28;20169;-76
2021/11/28 03:48:50;;;;;;;15.05;6.75;;;1.40;99.90;;;;;;5068864;28;20173;-75
2021/11/28 03:51:16;;;;;;;14.77;7.38;;;1.40;99.90;;;;;;5068685;28;20198;-75
2021/11/28 03:53:42;;;;;;;20.23;7.85;;;1.40;99.90;;;;;;5069930;28;20184;-76
2021/11/28 03:56:09;;;;;;;19.27;7.60;;;1.30;99.90;;;;;;5068686;28;20241;-76
2021/11/28 03:58:36;;;;;;;17.42;7.65;;;1.30;99.90;;;;;;5068396;28;20243;-77
2021/11/28 04:01:05;;;;;;;11.38;6.30;;;1.20;99.90;;;;;;5068563;28;20303;-77
2021/11/28 04:03:31;;;;;;;14.02;6.07;;;1.20;99.90;;;;;;5069906;28;20177;-78
2021/11/28 04:05:57;;;;;;;17.83;7.45;;;1.20;99.90;;;;;;5068440;28;20176;-78
2021/11/28 04:08:23;;;;;;;18.48;6.45;;;1.10;99.90;;;;;;5069837;28;20192;-77
2021/11/28 04:10:50;;;;;;;16.60;6.95;;;1.10;99.90;;;;;;5068137;28;20197;-77
2021/11/28 04:13:16;;;;;;;8.63;5.38;;;1.00;99.90;;;;;;5067019;28;20200;-77
2021/11/28 04:15:43;;;;;;;15.90;6.88;;;1.10;99.90;;;;;;5068280;28;20172;-77
2021/11/28 04:18:09;;;;;;;17.15;6.07;;;1.00;99.90;;;;;;5069346;28;20679;-78
2021/11/28 04:20:35;;;;;;;16.25;6.10;;;1.00;99.90;;;;;;5069582;28;20193;-77
2021/11/28 04:23:02;;;;;;;12.40;6.93;;;1.00;99.90;;;;;;5069461;28;20160;-77
2021/11/28 04:25:29;;;;;;;13.93;6.22;;;1.00;99.90;;;;;;5068112;28;20173;-77
2021/11/28 04:27:55;;;;;;;16.25;5.57;;;1.00;99.90;;;;;;5069367;28;20213;-79
2021/11/28 04:30:21;;;;;;;13.25;5.55;;;1.00;99.90;;;;;;5067097;28;20203;-78
2021/11/28 04:32:47;;;;;;;11.85;5.93;;;1.00;99.90;;;;;;5068088;28;20193;-78
2021/11/28 04:35:13;;;;;;;19.42;6.60;;;1.00;99.90;;;;;;5069232;28;20160;-79
2021/11/28 04:37:39;;;;;;;12.23;6.22;;;1.00;99.90;;;;;;5067938;28;20161;-79
2021/11/28 04:40:08;;;;;;;15.07;5.97;;;0.90;99.90;;;;;;5067868;28;20200;-79
2021/11/28 04:42:34;;;;;;;9.05;5.80;;;0.90;99.90;;;;;;5067730;28;20180;-80
2021/11/28 04:45:00;;;;;;;10.27;6.63;;;1.00;99.90;;;;;;5067776;28;20180;-80
2021/11/28 04:47:27;;;;;;;12.85;6.22;;;0.90;99.90;;;;;;5067377;28;20168;-80
2021/11/28 04:49:53;;;;;;;9.02;5.80;;;0.90;99.90;;;;;;5067838;28;20180;-80
2021/11/28 04:52:19;;;;;;;11.65;5.43;;;0.90;99.90;;;;;;5068707;28;20192;-80
2021/11/28 04:54:45;;;;;;;13.65;5.18;;;0.90;99.90;;;;;;5067751;28;20191;-81
2021/11/28 04:57:11;;;;;;;6.32;4.07;;;0.90;99.90;;;;;;5067571;28;20164;-79
2021/11/28 04:59:36;;;;;;;9.80;5.20;;;0.90;99.90;;;;;;5069048;28;20225;-79
2021/11/28 05:02:03;;;;;;;10.95;4.53;;;0.90;99.90;;;;;;5068593;28;20196;-78
2021/11/28 05:04:29;;;;;;;8.25;4.50;;;0.90;99.90;;;;;;5067504;28;20161;-79
2021/11/28 05:06:55;;;;;;;5.88;3.95;;;0.90;99.90;;;;;;5067705;28;20176;-80
2021/11/28 05:09:21;;;;;;;12.68;5.82;;;1.00;99.90;;;;;;5067569;28;20168;-80
2021/11/28 05:11:47;;;;;;;8.40;4.60;;;1.00;99.90;;;;;;5055949;28;20261;-78
2021/11/28 05:14:14;;;;;;;8.00;4.55;;;1.00;99.90;;;;;;5067414;28;20179;-80
2021/11/28 05:16:41;;;;;;;5.72;3.47;;;0.90;99.90;;;;;;5068819;28;20182;-81
2021/11/28 05:19:07;;;;;;;4.20;2.95;;;0.90;99.90;;;;;;5068658;28;20164;-81
2021/11/28 05:21:33;;;;;;;4.15;2.38;;;0.90;99.90;;;;;;5067354;28;20199;-82
2021/11/28 05:23:59;;;;;;;3.85;2.17;;;0.90;99.90;;;;;;5067392;28;20210;-84
2021/11/28 05:26:25;;;;;;;3.13;1.90;;;1.00;99.90;;;;;;5068675;28;20180;-83
2021/11/28 05:28:51;;;;;;;4.35;2.63;;;1.00;99.90;;;;;;5067446;28;20196;-84
2021/11/28 05:31:17;;;;;;;2.83;1.98;;;0.90;99.90;;;;;;5067498;28;20204;-84
2021/11/28 05:33:48;;;;;;;3.15;1.60;;;0.90;99.90;;;;;;5067298;28;20200;-82
2021/11/28 05:36:16;;;;;;;3.30;2.40;;;0.90;99.90;;;;;;5068698;28;20183;-81
2021/11/28 05:38:42;;;;;;;2.28;1.48;;;0.90;99.90;;;;;;5067248;28;20193;-82
2021/11/28 05:41:09;;;;;;;3.60;2.08;;;0.90;99.90;;;;;;5067445;28;20169;-82
2021/11/28 05:43:38;;;;;;;1.85;1.50;;;0.90;99.90;;;;;;5068762;28;20176;-85
2021/11/28 05:46:04;;;;;;;3.63;2.60;;;0.80;99.90;;;;;;5069121;28;20617;-86
2021/11/28 05:48:31;;;;;;;2.22;1.70;;;0.90;99.90;;;;;;5069154;28;20191;-85
2021/11/28 05:50:57;;;;;;;2.33;1.17;;;0.80;99.90;;;;;;5067578;28;20236;-86
2021/11/28 05:53:24;;;;;;;2.38;1.92;;;0.80;99.90;;;;;;5067341;28;20208;-84
2021/11/28 05:55:51;;;;;;;2.55;1.70;;;0.90;99.90;;;;;;5067425;28;20218;-85
2021/11/28 05:58:18;;;;;;;2.20;1.73;;;0.80;99.90;;;;;;5068118;28;20216;-85
2021/11/28 06:00:44;;;;;;;4.03;2.45;;;0.80;99.90;;;;;;5068692;28;20154;-85
2021/11/28 06:03:11;;;;;;;5.97;1.77;;;0.80;99.90;;;;;;5068670;28;20165;-84
2021/11/28 06:05:38;;;;;;;3.50;1.85;;;0.80;99.90;;;;;;5070375;28;20207;-79
2021/11/28 06:08:05;;;;;;;9.25;2.90;;;0.80;99.90;;;;;;5072352;28;20213;-79
2021/11/28 06:10:30;;;;;;;5.03;1.77;;;0.80;99.90;;;;;;5067387;28;20197;-79
2021/11/28 06:12:56;;;;;;;3.80;2.10;;;0.80;99.90;;;;;;5050583;28;20204;-81
2021/11/28 06:15:23;;;;;;;2.20;1.80;;;0.90;99.90;;;;;;5052067;28;20181;-80
2021/11/28 06:17:48;;;;;;;2.72;2.08;;;0.90;99.90;;;;;;5051954;28;20227;-79
2021/11/28 06:20:14;;;;;;;2.97;2.10;;;0.80;99.90;;;;;;5070232;28;20212;-82
2021/11/28 06:22:40;;;;;;;10.45;2.35;;;0.80;99.90;;;;;;5072144;28;20225;-83
2021/11/28 06:25:06;;;;;;;5.45;2.20;;;0.80;99.90;;;;;;5072870;28;20161;-79
2021/11/28 06:27:33;;;;;;;6.22;2.20;;;0.90;99.90;;;;;;5070708;28;20173;-83
2021/11/28 06:29:59;;;;;;;2.90;1.55;;;0.90;99.90;;;;;;5070765;28;20231;-83
2021/11/28 06:32:25;;;;;;;2.60;1.90;;;0.90;99.90;;;;;;5070620;28;20200;-79
2021/11/28 06:34:51;;;;;;;3.08;2.35;;;0.90;99.90;;;;;;5070425;28;20185;-79
2021/11/28 06:37:17;;;;;;;2.80;2.00;;;0.90;99.90;;;;;;5071598;28;20156;-81
2021/11/28 06:39:43;;;;;;;2.58;1.70;;;0.90;99.90;;;;;;5071547;28;20271;-80
2021/11/28 06:42:09;;;;;;;3.42;2.40;;;1.00;99.90;;;;;;5071535;28;20157;-79
2021/11/28 06:44:35;;;;;;;3.75;2.53;;;1.00;99.90;;;;;;5070179;28;20187;-77
2021/11/28 06:47:01;;;;;;;5.82;2.92;;;1.00;99.90;;;;;;5071303;28;20160;-77
2021/11/28 06:49:27;;;;;;;2.92;2.63;;;1.00;99.90;;;;;;5070034;28;20208;-80
2021/11/28 06:51:54;;;;;;;3.83;2.20;;;0.90;99.90;;;;;;5070051;28;20215;-78
2021/11/28 06:54:21;;;;;;;3.47;2.53;;;0.90;99.90;;;;;;5071418;28;20156;-79
2021/11/28 06:56:48;;;;;;;3.28;2.65;;;1.00;99.90;;;;;;5071269;28;20157;-78
2021/11/28 06:59:15;;;;;;;3.45;2.58;;;0.90;99.90;;;;;;5070989;28;20212;-78
2021/11/28 07:01:41;;;;;;;3.15;2.35;;;0.90;99.90;;;;;;5071040;28;20155;-79
2021/11/28 07:04:06;;;;;;;3.25;2.28;;;1.00;99.90;;;;;;5070966;28;20180;-79
2021/11/28 07:06:32;;;;;;;4.50;2.33;;;1.00;99.90;;;;;;5069611;28;20176;-79
2021/11/28 07:08:58;;;;;;;6.93;3.95;;;1.00;99.90;;;;;;5070959;28;20189;-79
2021/11/28 07:11:24;;;;;;;3.40;2.58;;;0.90;99.90;;;;;;5070061;28;20180;-79
2021/11/28 07:13:51;;;;;;;4.10;2.83;;;0.90;99.90;;;;;;5070511;28;20215;-78
2021/11/28 07:16:17;;;;;;;4.15;2.72;;;0.90;99.90;;;;;;5069374;28;20175;-80
2021/11/28 07:18:44;;;;;;;5.05;2.80;;;0.90;99.90;;;;;;5069434;28;20199;-80
2021/11/28 07:21:12;;;;;;;4.90;3.10;;;1.00;99.90;;;;;;5070800;28;20216;-80
2021/11/28 07:23:40;;;;;;;5.20;3.38;;;1.00;99.90;;;;;;5069501;28;20168;-78
2021/11/28 07:26:07;;;;;;;2.65;2.28;;;1.00;99.90;;;;;;5069128;28;20172;-78
2021/11/28 07:28:34;;;;;;;3.88;2.60;;;1.00;99.90;;;;;;5069323;28;20188;-75
2021/11/28 07:31:00;;;;;;;5.40;2.85;;;1.00;99.90;;;;;;5070676;28;20168;-80
2021/11/28 07:33:26;;;;;;;3.53;2.40;;;1.00;99.90;;;;;;5069132;28;20193;-81
2021/11/28 07:35:52;;;;;;;4.63;2.75;;;1.00;99.90;;;;;;5070694;28;20252;-81
2021/11/28 07:38:18;;;;;;;3.13;2.58;;;1.00;99.90;;;;;;5070564;28;20191;-82
2021/11/28 07:40:44;;;;;;;4.88;3.55;;;1.10;99.90;;;;;;5069254;28;20195;-81
2021/11/28 07:43:11;;;;;;;3.50;3.00;;;1.10;99.90;;;;;;5070354;28;20161;-82
2021/11/28 07:45:37;;;;;;;3.08;2.20;;;1.10;99.90;;;;;;5070462;28;20637;-82
2021/11/28 07:48:04;;;;;;;3.05;2.47;;;1.10;99.90;;;;;;5069224;28;20165;-80
2021/11/28 07:50:30;;;;;;;6.63;2.67;;;1.20;99.90;;;;;;5069074;28;20207;-79
2021/11/28 07:52:56;;;;;;;3.92;2.40;;;1.20;99.90;;;;;;5068973;28;20193;-80
2021/11/28 07:55:22;;;;;;;11.10;3.83;;;1.30;99.90;;;;;;5070415;28;20580;-78
2021/11/28 07:57:48;;;;;;;10.00;3.15;;;1.40;99.90;;;;;;5070015;28;20216;-80
2021/11/28 08:00:14;;;;;;;3.92;2.92;;;1.30;99.90;;;;;;5068701;28;20189;-80
2021/11/28 08:02:40;;;;;;;4.40;3.05;;;1.20;99.90;;;;;;5068714;28;20169;-80
2021/11/28 08:05:07;;;;;;;4.93;3.20;;;1.20;99.90;;;;;;5069810;28;20157;-80
2021/11/28 08:07:33;;;;;;;4.63;3.47;;;1.20;99.90;;;;;;5068839;28;20183;-80
2021/11/28 08:10:00;;;;;;;8.95;4.10;;;1.20;99.90;;;;;;5069722;28;20279;-81
2021/11/28 08:12:26;;;;;;;5.15;3.05;;;1.20;99.90;;;;;;5068458;28;20622;-81
2021/11/28 08:14:53;;;;;;;4.75;3.50;;;1.20;99.90;;;;;;5068482;28;20187;-80
2021/11/28 08:17:19;;;;;;;8.30;4.18;;;1.30;99.90;;;;;;5069694;28;20152;-80
2021/11/28 08:19:45;;;;;;;4.57;3.33;;;1.30;99.90;;;;;;5068189;28;20202;-79
2021/11/28 08:22:11;;;;;;;6.38;3.17;;;1.30;99.90;;;;;;5069613;28;20161;-78
2021/11/28 08:24:38;;;;;;;5.43;3.35;;;1.30;99.90;;;;;;5069550;28;20176;-78
2021/11/28 08:27:04;;;;;;;4.57;3.10;;;1.40;99.90;;;;;;5068853;28;20157;-78
2021/11/28 08:29:31;;;;;;;5.30;3.35;;;1.40;99.90;;;;;;5073249;28;20203;-76
2021/11/28 08:32:00;;;;;;;4.38;3.03;;;1.40;99.90;;;;;;5073586;28;20195;-79
2021/11/28 08:34:27;;;;;;;5.80;3.85;;;1.40;99.90;;;;;;5081789;28;20184;-78
2021/11/28 08:36:53;;;;;;;8.80;3.92;;;1.50;99.90;;;;;;5083028;28;20157;-78
2021/11/28 08:39:19;;;;;;;4.93;3.35;;;1.50;99.90;;;;;;5068901;28;20184;-77
2021/11/28 08:41:45;;;;;;;3.65;2.70;;;1.60;99.90;;;;;;5083818;28;20196;-75
2021/11/28 08:44:12;;;;;;;10.10;3.20;;;1.70;99.90;;;;;;5067464;28;20182;-75
2021/11/28 08:46:38;;;;;;;4.43;3.03;;;1.80;99.90;;;;;;5082217;28;20164;-75
2021/11/28 08:49:04;;;;;;;5.45;3.05;;;1.90;99.90;;;;;;5079778;28;20194;-76
2021/11/28 08:51:32;;;;;;;3.30;2.40;;;1.90;99.90;;;;;;5078081;28;20250;-76
2021/11/28 08:53:58;;;;;;;4.10;2.45;;;1.90;99.90;;;;;;5083941;28;20286;-76
2021/11/28 08:56:38;;;;;;;5.38;3.00;;;1.90;99.90;;;;;;5087076;28;20228;-76
2021/11/28 08:59:14;;;;;;;3.78;2.63;;;1.90;99.90;;;;;;5089620;28;20219;-77
2021/11/28 09:01:42;;;;;;;2.85;2.15;;;1.90;99.90;;;;;;5071480;28;20213;-76
2021/11/28 09:04:08;;;;;;;3.85;3.00;;;2.00;99.90;;;;;;5069010;28;20172;-77
2021/11/28 09:06:34;;;;;;;4.97;2.88;;;1.90;99.90;;;;;;5080281;28;20310;-75
2021/11/28 09:09:01;;;;;;;3.28;2.25;;;2.00;99.90;;;;;;5064775;28;20188;-75
2021/11/28 09:11:27;;;;;;;7.70;2.95;;;1.90;99.90;;;;;;5076237;28;20208;-75
2021/11/28 09:13:53;;;;;;;4.93;2.72;;;1.80;99.90;;;;;;5086726;28;20234;-75
2021/11/28 09:16:19;;;;;;;4.70;3.03;;;1.90;99.90;;;;;;5087513;28;20210;-76
2021/11/28 09:21:15;;;;;;;5.95;2.88;;;1.90;99.90;;;;;;5068752;28;20219;-76
2021/11/28 09:26:25;;;;;;;3.65;2.53;;;2.00;99.90;;;;;;5068801;28;20233;-75
2021/11/28 09:28:51;;;;;;;7.75;3.15;;;2.00;99.90;;;;;;5067456;28;20531;-75
2021/11/28 09:31:17;;;;;;;10.00;5.55;;;2.10;99.90;;;;;;5067370;28;20193;-75
2021/11/28 09:33:43;;;;;;;6.20;3.88;;;2.10;99.90;;;;;;5067471;28;20200;-75
2021/11/28 09:36:09;;;;;;;4.18;2.20;;;2.20;99.90;;;;;;5068755;28;20172;-75
2021/11/28 09:38:35;;;;;;;7.75;3.42;;;2.20;99.90;;;;;;5070376;28;20622;-76
2021/11/28 09:41:10;;;;;;;4.95;3.30;;;2.30;99.90;;;;;;5071448;28;20168;-75
2021/11/28 09:43:40;;;;;;;5.97;2.63;;;2.30;99.90;;;;;;5071272;28;20242;-76
2021/11/28 09:46:08;;;;;;;5.72;3.53;;;2.30;99.90;;;;;;5072193;28;20167;-76
2021/11/28 09:48:35;;;;;;;5.13;3.50;;;2.30;99.90;;;;;;5071046;28;20176;-76
2021/11/28 09:51:06;;;;;;;4.40;3.35;;;2.40;99.90;;;;;;5071386;28;20209;-76
2021/11/28 09:53:34;;;;;;;6.53;3.50;;;2.30;99.90;;;;;;5072234;28;20220;-76
2021/11/28 09:56:01;;;;;;;8.80;4.85;;;2.30;99.90;;;;;;5070258;28;20175;-76
2021/11/28 09:58:30;;;;;;;9.18;6.43;;;2.30;99.90;;;;;;5070700;28;20232;-78
2021/11/28 10:00:58;;;;;;;7.70;5.40;;;2.20;99.90;;;;;;5072173;28;20187;-76
2021/11/28 10:03:25;;;;;;;11.63;5.53;;;2.20;99.90;;;;;;5070614;28;20199;-79
2021/11/28 10:05:55;;;;;;;9.57;6.00;;;2.30;99.90;;;;;;5070814;28;20172;-77
2021/11/28 10:08:22;;;;;;;8.38;6.97;;;2.50;99.90;;;;;;5070884;28;20199;-75
2021/11/28 10:11:17;;;;;;;8.60;5.53;;;2.50;99.90;;;;;;5064614;28;20188;-77
2021/11/28 10:13:44;;;;;;;8.55;5.32;;;2.60;99.90;;;;;;5070218;28;20270;-75
2021/11/28 10:16:10;;;;;;;7.55;5.75;;;2.40;99.90;;;;;;5070688;28;20196;-76
2021/11/28 10:18:36;;;;;;;7.13;4.82;;;2.30;99.90;;;;;;5071928;28;20176;-76
2021/11/28 10:21:03;;;;;;;8.07;4.93;;;2.20;99.90;;;;;;5071611;28;20173;-80
2021/11/28 10:23:29;;;;;;;6.80;5.30;;;2.30;99.90;;;;;;5071807;28;20200;-76
2021/11/28 10:26:17;;;;;;;8.60;6.40;;;2.30;99.90;;;;;;5070083;28;20388;-79
2021/11/28 10:29:19;;;;;;;13.10;5.70;;;2.30;99.90;;;;;;5056893;28;20188;-78
2021/11/28 10:31:49;;;;;;;6.00;4.93;;;2.40;99.90;;;;;;5059177;28;20180;-76
2021/11/28 10:34:32;;;;;;;6.57;4.97;;;2.60;99.90;;;;;;5051950;28;20235;-77
2021/11/28 10:37:05;;;;;;;7.63;4.90;;;2.60;99.90;;;;;;5057175;28;20192;-77
2021/11/28 10:39:36;;;;;;;24.33;19.48;;;2.60;99.90;;;;;;5044581;28;20184;-75
2021/11/28 10:42:03;;;;;;;19.20;16.48;;;2.80;99.90;;;;;;5064300;28;20189;-76
2021/11/28 10:44:29;;;;;;;10.93;7.88;;;2.80;99.90;;;;;;5047412;28;20611;-78
2021/11/28 10:47:05;;;;;;;10.10;6.57;;;2.70;99.90;;;;;;5061085;28;20203;-77
2021/11/28 10:49:32;;;;;;;12.98;5.90;;;2.70;99.90;;;;;;5058564;28;20192;-75
2021/11/28 10:52:11;;;;;;;8.63;5.95;;;2.70;99.90;;;;;;5049778;28;20301;-77
2021/11/28 10:54:42;;;;;;;9.18;5.95;;;2.80;99.90;;;;;;5064156;28;20191;-77
2021/11/28 10:57:08;;;;;;;12.35;6.10;;;2.90;99.90;;;;;;5062336;28;20169;-79
2021/11/28 10:59:36;;;;;;;7.47;5.80;;;2.90;99.90;;;;;;5057060;28;20219;-75
2021/11/28 11:02:18;;;;;;;9.15;6.90;;;2.60;99.90;;;;;;5050984;28;20217;-76
2021/11/28 11:04:43;;;;;;;7.90;6.25;;;2.50;99.90;;;;;;5057807;28;20193;-76
2021/11/28 11:07:14;;;;;;;9.27;6.22;;;2.50;99.90;;;;;;5054065;28;20162;-77
2021/11/28 11:09:45;;;;;;;10.00;6.18;;;2.50;99.90;;;;;;5050906;28;20163;-76
2021/11/28 11:12:22;;;;;;;11.48;6.50;;;2.50;99.90;;;;;;5061045;28;20204;-81
2021/11/28 11:14:51;;;;;;;9.73;6.47;;;2.70;99.90;;;;;;5070106;28;20251;-79
2021/11/28 11:17:17;;;;;;;7.07;6.30;;;2.90;99.90;;;;;;5084386;28;20659;-79
2021/11/28 11:19:50;;;;;;;16.88;10.05;;;3.00;99.90;;;;;;5063281;28;20157;-79
2021/11/28 11:22:26;;;;;;;20.83;11.68;;;3.10;99.90;;;;;;5058357;28;20219;-79
2021/11/28 11:25:01;;;;;;;18.15;10.18;;;3.10;99.90;;;;;;5059484;28;20260;-79
2021/11/28 11:27:33;;;;;;;18.27;11.32;;;3.10;99.90;;;;;;5056557;28;20172;-80
2021/11/28 11:30:29;;;;;;;10.15;8.10;;;3.10;99.90;;;;;;5050582;28;20167;-81
2021/11/28 11:32:57;;;;;;;17.17;10.50;;;3.10;99.90;;;;;;5031581;28;20205;-78
2021/11/28 11:35:26;;;;;;;11.95;8.75;;;3.00;99.90;;;;;;5037510;28;20223;-78
2021/11/28 11:37:57;;;;;;;13.35;9.07;;;2.90;99.90;;;;;;5052504;28;20198;-80
2021/11/28 11:40:24;;;;;;;14.40;8.50;;;3.10;99.90;;;;;;5047574;28;20198;-78
2021/11/28 11:42:52;;;;;;;16.42;10.10;;;3.20;99.90;;;;;;5066470;28;20189;-79
2021/11/28 11:45:20;;;;;;;15.05;8.68;;;3.40;99.90;;;;;;5055987;28;20204;-79
2021/11/28 11:47:46;;;;;;;17.52;9.07;;;3.60;99.90;;;;;;5041078;28;20184;-79
2021/11/28 11:50:18;;;;;;;23.83;10.18;;;3.70;99.90;;;;;;5051367;28;20189;-80
2021/11/28 11:52:44;;;;;;;17.20;9.63;;;3.90;99.90;;;;;;5049851;28;20197;-77
2021/11/28 11:55:17;;;;;;;14.73;9.75;;;4.10;99.90;;;;;;5030930;28;20216;-78
2021/11/28 11:57:49;;;;;;;18.80;9.35;;;4.10;99.90;;;;;;5064807;28;20814;-78
2021/11/28 12:00:24;;;;;;;16.33;8.55;;;4.30;99.90;;;;;;5067971;28;20164;-79
2021/11/28 12:02:53;;;;;;;14.70;8.43;;;4.40;99.90;;;;;;5066985;28;20184;-79
2021/11/28 12:05:25;;;;;;;17.10;7.40;;;4.30;99.90;;;;;;5067739;28;20200;-78
2021/11/28 12:07:54;;;;;;;17.50;10.10;;;4.20;99.90;;;;;;5047866;28;20180;-79
2021/11/28 12:10:52;;;;;;;10.50;8.32;;;4.20;99.90;;;;;;5053428;28;20189;-79
2021/11/28 12:13:27;;;;;;;12.40;7.32;;;4.10;99.90;;;;;;5059430;28;20213;-79
2021/11/28 12:16:14;;;;;;;13.93;8.02;;;3.80;99.90;;;;;;5059821;28;20194;-79
2021/11/28 12:18:45;;;;;;;11.90;8.50;;;3.60;99.90;;;;;;5067938;28;20183;-79
2021/11/28 12:21:19;;;;;;;13.38;7.82;;;3.50;99.90;;;;;;5060259;28;20199;-80
2021/11/28 12:24:11;;;;;;;14.13;9.18;;;3.50;99.90;;;;;;5048117;28;20200;-78
2021/11/28 12:26:44;;;;;;;16.25;10.82;;;3.40;99.90;;;;;;5049386;28;20161;-78
2021/11/28 12:29:16;;;;;;;18.20;11.52;;;3.20;99.90;;;;;;5049531;28;20169;-80
2021/11/28 12:31:51;;;;;;;21.10;11.57;;;3.10;99.90;;;;;;5048368;28;20165;-80
2021/11/28 12:34:19;;;;;;;20.15;12.90;;;3.10;99.90;;;;;;5048151;28;20276;-78
2021/11/28 12:36:50;;;;;;;22.73;13.68;;;3.00;99.90;;;;;;5058030;28;20724;-79
2021/11/28 12:39:16;;;;;;;25.13;15.55;;;3.00;99.90;;;;;;5066179;28;20162;-77
2021/11/28 12:41:45;;;;;;;25.70;16.23;;;3.10;99.90;;;;;;5066761;28;20196;-78
2021/11/28 12:44:12;;;;;;;27.48;17.33;;;3.20;99.90;;;;;;5065897;28;20188;-79
2021/11/28 12:46:43;;;;;;;26.25;14.73;;;3.00;99.90;;;;;;5062269;28;20228;-78
2021/11/28 12:49:35;;;;;;;34.47;17.27;;;2.90;99.90;;;;;;5061965;28;20170;-76
2021/11/28 12:52:23;;;;;;;17.58;12.20;;;2.70;99.90;;;;;;5058841;28;20171;-76
2021/11/28 12:55:04;;;;;;;34.50;11.13;;;2.60;99.90;;;;;;5077865;28;20193;-77
2021/11/28 12:57:31;;;;;;;18.38;9.88;;;2.50;99.90;;;;;;5085367;28;20217;-78
2021/11/28 13:00:17;;;;;;;26.30;10.38;;;2.50;99.90;;;;;;5073631;28;20160;-77
2021/11/28 13:02:52;;;;;;;15.70;10.40;;;2.40;99.90;;;;;;5077472;28;20175;-77
2021/11/28 13:05:30;;;;;;;17.60;10.75;;;2.50;99.90;;;;;;5063206;28;20200;-79
2021/11/28 13:08:04;;;;;;;15.93;10.50;;;2.60;99.90;;;;;;5047770;28;20240;-80